Погода Енвирана 2 недели

Амасонас, Бразилия

23 июля-04 августа
  • 23июля
    Сегодня
    +21°
    +36°
    Ясно и безоблачно
    ВремяПогодаТемператураВлажностьДавлениеВетер, м/сВероятность осадков
    02:00Облачно с прояснениями+24°C80 %744 мм1.6 м/с5 %
    05:00Ясно и безоблачно+23°C82 %744 мм1.7 м/с5 %
    08:00Ясно и безоблачно+23°C82 %746 мм1.8 м/с5 %
    11:00Ясно и безоблачно+31°C51 %747 мм1.7 м/с5 %
    14:00Ясно и безоблачно+35°C39 %745 мм2.6 м/с2 %
    17:00Ясно и безоблачно+34°C44 %743 мм2.2 м/с5 %
    20:00Ясно и безоблачно+30°C69 %743 мм2.1 м/с5 %
    23:00Ясно и безоблачно+24°C80 %745 мм0.7 м/с5 %
  • 24июля
    Среда
    +21°
    +35°
    Ясно и безоблачно
    ВремяПогодаТемператураВлажностьДавлениеВетер, м/сВероятность осадков
    02:00Ясно и безоблачно+23°C83 %744 мм1.5 м/с5 %
    05:00Ясно и безоблачно+23°C84 %744 мм1.3 м/с5 %
    08:00Ясно и безоблачно+23°C84 %746 мм1.8 м/с5 %
    11:00Ясно и безоблачно+31°C55 %747 мм1.5 м/с5 %
    14:00Ясно и безоблачно+35°C43 %745 мм1.0 м/с15 %
    17:00Ясно и безоблачно+33°C48 %743 мм0.8 м/с5 %
    20:00Практически безоблачно+29°C76 %744 мм2.2 м/с5 %
    23:00Ясно и безоблачно+24°C84 %745 мм2.1 м/с5 %
  • 25июля
    Четверг
    +22°
    +36°
    Практически безоблачно
    ВремяПогодаТемператураВлажностьДавлениеВетер, м/сВероятность осадков
    02:00Ясно и безоблачно+23°C90 %745 мм2.1 м/с5 %
    05:00Ясно и безоблачно+23°C91 %744 мм2.2 м/с5 %
    08:00Ясно и безоблачно+23°C89 %746 мм1.8 м/с5 %
    11:00Практически безоблачно+30°C57 %746 мм1.0 м/с6 %
    14:00Практически безоблачно+35°C45 %745 мм0.7 м/с4 %
    17:00Ясно и безоблачно+34°C49 %742 мм1.5 м/с5 %
    20:00Ясно и безоблачно+30°C77 %743 мм1.2 м/с5 %
    23:00Облачно с прояснениями+25°C80 %744 мм0.5 м/с5 %
  • 26июля
    Пятница
    +22°
    +35°
    Небольшая облачность
    ВремяПогодаТемператураВлажностьДавлениеВетер, м/сВероятность осадков
    02:00Облачно с прояснениями+23°C89 %743 мм1.7 м/с5 %
    05:00Ясно и безоблачно+23°C90 %743 мм2.0 м/с5 %
    08:00Ясно и безоблачно+24°C86 %744 мм2.0 м/с5 %
    11:00Небольшая облачность+31°C57 %745 мм1.2 м/с5 %
    14:00Небольшая облачность+35°C45 %743 мм0.3 м/с5 %
    17:00Ясно и безоблачно+34°C47 %741 мм0.4 м/с5 %
    20:00Небольшая облачность+30°C86 %741 мм0.6 м/с5 %
    23:00Небольшая облачность+25°C87 %743 мм1.9 м/с5 %
Мы используем cookies
Соглашаюсь